LOWW

Vienna International Airport

Vienna, Austria
METAR LOWW 190320Z 33005KT 4600 -SN BR FEW003 BKN005 M01/M01 Q1016 R88/29//95 TEMPO BKN004
Observed Flight Rules
Nov-19 @ 03:20 UTC (32 minutes ago) Instrument Flight Rules
Wind Visibility Clouds Conditions
330° at 5 knots 4,603 meters
  • Few at 300' AGL
  • Broken at 500' AGL
  • Light Snow
  • Mist
Temperatures Readings
Current -1°C / 30°F
Dewpoint -1°C / 30°F
Humidity 100%
Altimeter 30" Hg
Pressure 1016 hPa
Elevation 190
METAR LOWW 190320Z 33005KT 4600 -SN BR FEW003 BKN005 M01/M01 Q1016 R88/29//95 TEMPO BKN004
Observed Flight Rules
Nov-19 @ 03:20 UTC
(32 minutes ago)
IFR
Wind Visibility
330° at 5 knots 4,603 meters
Clouds
  • Few at 300' AGL
  • Broken at 500' AGL
Conditions
  • Light Snow
  • Mist
Temperature Dewpoint
-1°C / 30°F -1°C / 30°F
Humidity Altimeter Pressure
100% 30" Hg 1016 hPa